sensor_id;sensor_type;location;lat;lon;timestamp;pressure;altitude;pressure_sealevel;temperature;humidity
7836;BME280;3963;42.658;23.298;2023-03-02T00:02:21;58776.38;;;5.10;100.00
7836;BME280;3963;42.658;23.298;2023-03-02T00:04:51;58774.41;;;5.13;100.00
7836;BME280;3963;42.658;23.298;2023-03-02T00:07:23;58767.88;;;5.17;100.00
7836;BME280;3963;42.658;23.298;2023-03-02T00:09:53;58799.16;;;5.17;100.00
7836;BME280;3963;42.658;23.298;2023-03-02T00:12:20;58800.69;;;5.31;100.00
7836;BME280;3963;42.658;23.298;2023-03-02T00:14:47;58796.50;;;5.29;100.00
7836;BME280;3963;42.658;23.298;2023-03-02T00:17:14;58802.72;;;5.30;100.00
7836;BME280;3963;42.658;23.298;2023-03-02T00:19:41;58793.25;;;5.38;100.00
7836;BME280;3963;42.658;23.298;2023-03-02T00:22:09;58831.72;;;5.38;100.00
7836;BME280;3963;42.658;23.298;2023-03-02T00:24:37;58824.31;;;5.46;100.00
7836;BME280;3963;42.658;23.298;2023-03-02T00:27:04;58815.47;;;5.42;100.00
7836;BME280;3963;42.658;23.298;2023-03-02T00:29:31;58803.94;;;5.36;100.00
7836;BME280;3963;42.658;23.298;2023-03-02T00:31:58;58813.50;;;5.45;100.00
7836;BME280;3963;42.658;23.298;2023-03-02T00:34:24;58853.59;;;5.47;100.00
7836;BME280;3963;42.658;23.298;2023-03-02T00:36:51;58816.16;;;5.48;100.00
7836;BME280;3963;42.658;23.298;2023-03-02T00:39:18;58828.53;;;5.35;100.00
7836;BME280;3963;42.658;23.298;2023-03-02T00:41:47;58827.84;;;5.44;100.00
7836;BME280;3963;42.658;23.298;2023-03-02T00:44:14;58826.44;;;5.48;100.00
7836;BME280;3963;42.658;23.298;2023-03-02T00:46:42;58811.56;;;5.63;100.00
7836;BME280;3963;42.658;23.298;2023-03-02T00:49:09;58863.97;;;5.64;100.00
7836;BME280;3963;42.658;23.298;2023-03-02T00:51:36;58858.91;;;5.52;100.00
7836;BME280;3963;42.658;23.298;2023-03-02T00:54:02;58820.06;;;5.42;100.00
7836;BME280;3963;42.658;23.298;2023-03-02T00:56:29;58839.19;;;5.45;100.00
7836;BME280;3963;42.658;23.298;2023-03-02T00:58:58;58832.34;;;5.41;100.00
7836;BME280;3963;42.658;23.298;2023-03-02T01:01:29;58795.63;;;5.33;100.00
7836;BME280;3963;42.658;23.298;2023-03-02T01:03:56;58829.09;;;5.36;100.00
7836;BME280;3963;42.658;23.298;2023-03-02T01:06:22;58782.19;;;5.30;100.00
7836;BME280;3963;42.658;23.298;2023-03-02T01:08:49;58792.09;;;5.35;100.00
7836;BME280;3963;42.658;23.298;2023-03-02T01:11:18;58780.59;;;5.29;100.00
7836;BME280;3963;42.658;23.298;2023-03-02T01:13:45;58788.28;;;5.29;100.00
7836;BME280;3963;42.658;23.298;2023-03-02T01:16:14;58759.03;;;5.13;100.00
7836;BME280;3963;42.658;23.298;2023-03-02T01:18:41;58806.63;;;5.24;100.00
7836;BME280;3963;42.658;23.298;2023-03-02T01:21:10;58782.72;;;5.16;100.00
7836;BME280;3963;42.658;23.298;2023-03-02T01:23:37;58794.50;;;5.15;100.00
7836;BME280;3963;42.658;23.298;2023-03-02T01:26:04;58774.06;;;5.03;100.00
7836;BME280;3963;42.658;23.298;2023-03-02T01:28:31;58762.72;;;5.02;100.00
7836;BME280;3963;42.658;23.298;2023-03-02T01:30:57;58800.25;;;5.18;100.00
7836;BME280;3963;42.658;23.298;2023-03-02T01:33:27;58789.63;;;5.08;100.00
7836;BME280;3963;42.658;23.298;2023-03-02T01:35:53;58782.72;;;5.01;100.00
7836;BME280;3963;42.658;23.298;2023-03-02T01:38:20;58761.75;;;5.03;100.00
7836;BME280;3963;42.658;23.298;2023-03-02T01:40:47;58758.31;;;4.93;100.00
7836;BME280;3963;42.658;23.298;2023-03-02T01:43:15;58776.16;;;5.05;100.00
7836;BME280;3963;42.658;23.298;2023-03-02T01:45:53;58765.91;;;5.05;100.00
7836;BME280;3963;42.658;23.298;2023-03-02T01:48:25;58773.53;;;5.02;100.00
7836;BME280;3963;42.658;23.298;2023-03-02T01:50:55;58792.88;;;4.99;100.00
7836;BME280;3963;42.658;23.298;2023-03-02T01:53:24;58793.69;;;5.07;100.00
7836;BME280;3963;42.658;23.298;2023-03-02T01:55:52;58751.78;;;4.96;100.00
7836;BME280;3963;42.658;23.298;2023-03-02T01:58:20;58785.09;;;4.96;100.00
7836;BME280;3963;42.658;23.298;2023-03-02T02:00:47;58731.78;;;4.82;100.00
7836;BME280;3963;42.658;23.298;2023-03-02T02:03:17;58729.06;;;4.92;100.00
7836;BME280;3963;42.658;23.298;2023-03-02T02:05:53;58753.09;;;4.90;100.00
7836;BME280;3963;42.658;23.298;2023-03-02T02:08:23;58738.59;;;4.86;100.00
7836;BME280;3963;42.658;23.298;2023-03-02T02:10:51;58757.78;;;4.92;100.00
7836;BME280;3963;42.658;23.298;2023-03-02T02:13:18;58768.13;;;5.10;100.00
7836;BME280;3963;42.658;23.298;2023-03-02T02:15:45;58754.59;;;5.04;100.00
7836;BME280;3963;42.658;23.298;2023-03-02T02:18:12;58792.28;;;5.11;100.00
7836;BME280;3963;42.658;23.298;2023-03-02T02:20:40;58779.91;;;4.94;100.00
7836;BME280;3963;42.658;23.298;2023-03-02T02:23:18;58737.53;;;4.85;100.00
7836;BME280;3963;42.658;23.298;2023-03-02T02:26:13;58774.69;;;4.91;100.00
7836;BME280;3963;42.658;23.298;2023-03-02T02:28:46;58747.00;;;4.92;100.00
7836;BME280;3963;42.658;23.298;2023-03-02T02:31:18;58730.38;;;4.86;100.00
7836;BME280;3963;42.658;23.298;2023-03-02T02:33:50;58773.44;;;4.85;100.00
7836;BME280;3963;42.658;23.298;2023-03-02T02:36:22;58751.84;;;4.84;100.00
7836;BME280;3963;42.658;23.298;2023-03-02T02:38:52;58742.03;;;4.97;100.00
7836;BME280;3963;42.658;23.298;2023-03-02T02:41:23;58761.41;;;4.93;100.00
7836;BME280;3963;42.658;23.298;2023-03-02T02:43:52;58749.56;;;4.77;100.00
7836;BME280;3963;42.658;23.298;2023-03-02T02:46:19;58728.97;;;4.75;100.00
7836;BME280;3963;42.658;23.298;2023-03-02T02:48:46;58737.09;;;4.73;100.00
7836;BME280;3963;42.658;23.298;2023-03-02T02:51:18;58773.28;;;4.80;100.00
7836;BME280;3963;42.658;23.298;2023-03-02T02:53:51;58764.34;;;4.74;100.00
7836;BME280;3963;42.658;23.298;2023-03-02T02:56:25;58711.28;;;4.68;100.00
7836;BME280;3963;42.658;23.298;2023-03-02T02:58:54;58728.25;;;4.69;100.00
7836;BME280;3963;42.658;23.298;2023-03-02T03:01:23;58731.34;;;4.55;100.00
7836;BME280;3963;42.658;23.298;2023-03-02T03:03:52;58729.84;;;4.71;100.00
7836;BME280;3963;42.658;23.298;2023-03-02T03:06:23;58768.41;;;4.73;100.00
7836;BME280;3963;42.658;23.298;2023-03-02T03:08:58;58705.81;;;4.72;100.00
7836;BME280;3963;42.658;23.298;2023-03-02T03:11:28;58748.41;;;4.59;100.00
7836;BME280;3963;42.658;23.298;2023-03-02T03:14:01;58723.56;;;4.67;100.00
7836;BME280;3963;42.658;23.298;2023-03-02T03:16:30;58747.34;;;4.73;100.00
7836;BME280;3963;42.658;23.298;2023-03-02T03:19:03;58725.06;;;4.66;100.00
7836;BME280;3963;42.658;23.298;2023-03-02T03:21:31;58729.50;;;4.75;100.00
7836;BME280;3963;42.658;23.298;2023-03-02T03:23:58;58738.69;;;4.74;100.00
7836;BME280;3963;42.658;23.298;2023-03-02T03:26:26;58707.41;;;4.74;100.00
7836;BME280;3963;42.658;23.298;2023-03-02T03:28:53;58709.44;;;4.73;100.00
7836;BME280;3963;42.658;23.298;2023-03-02T03:31:22;58705.47;;;4.62;100.00
7836;BME280;3963;42.658;23.298;2023-03-02T03:33:49;58727.28;;;4.56;100.00
7836;BME280;3963;42.658;23.298;2023-03-02T03:36:16;58754.41;;;4.70;100.00
7836;BME280;3963;42.658;23.298;2023-03-02T03:38:43;58716.66;;;4.75;100.00
7836;BME280;3963;42.658;23.298;2023-03-02T03:41:10;58717.13;;;4.73;100.00
7836;BME280;3963;42.658;23.298;2023-03-02T03:43:38;58718.53;;;4.84;100.00
7836;BME280;3963;42.658;23.298;2023-03-02T03:46:05;58735.31;;;4.81;100.00
7836;BME280;3963;42.658;23.298;2023-03-02T03:48:32;58776.38;;;4.95;100.00
7836;BME280;3963;42.658;23.298;2023-03-02T03:50:59;58751.94;;;4.87;100.00
7836;BME280;3963;42.658;23.298;2023-03-02T03:53:26;58745.75;;;4.86;100.00
7836;BME280;3963;42.658;23.298;2023-03-02T03:55:53;58750.19;;;4.80;100.00
7836;BME280;3963;42.658;23.298;2023-03-02T03:58:21;58750.00;;;4.90;100.00
7836;BME280;3963;42.658;23.298;2023-03-02T04:00:50;58775.13;;;4.89;100.00
7836;BME280;3963;42.658;23.298;2023-03-02T04:03:17;58739.94;;;4.95;100.00
7836;BME280;3963;42.658;23.298;2023-03-02T04:05:44;58754.25;;;4.79;100.00
7836;BME280;3963;42.658;23.298;2023-03-02T04:08:11;58722.88;;;4.76;100.00
7836;BME280;3963;42.658;23.298;2023-03-02T04:10:38;58741.34;;;4.77;100.00
7836;BME280;3963;42.658;23.298;2023-03-02T04:13:05;58751.59;;;4.77;100.00
7836;BME280;3963;42.658;23.298;2023-03-02T04:15:32;58721.00;;;4.67;100.00
7836;BME280;3963;42.658;23.298;2023-03-02T04:18:00;58734.00;;;4.72;100.00
7836;BME280;3963;42.658;23.298;2023-03-02T04:20:28;58725.06;;;4.66;100.00
7836;BME280;3963;42.658;23.298;2023-03-02T04:22:56;58746.47;;;4.62;100.00
7836;BME280;3963;42.658;23.298;2023-03-02T04:25:26;58687.06;;;4.64;100.00
7836;BME280;3963;42.658;23.298;2023-03-02T04:27:53;58724.38;;;4.61;100.00
7836;BME280;3963;42.658;23.298;2023-03-02T04:30:23;58726.69;;;4.53;100.00
7836;BME280;3963;42.658;23.298;2023-03-02T04:32:50;58722.34;;;4.46;100.00
7836;BME280;3963;42.658;23.298;2023-03-02T04:35:18;58721.34;;;4.48;100.00
7836;BME280;3963;42.658;23.298;2023-03-02T04:37:45;58693.78;;;4.36;100.00
7836;BME280;3963;42.658;23.298;2023-03-02T04:40:13;58714.81;;;4.37;100.00
7836;BME280;3963;42.658;23.298;2023-03-02T04:42:40;58685.31;;;4.28;100.00
7836;BME280;3963;42.658;23.298;2023-03-02T04:45:09;58682.41;;;4.33;100.00
7836;BME280;3963;42.658;23.298;2023-03-02T04:47:37;58710.84;;;4.40;100.00
7836;BME280;3963;42.658;23.298;2023-03-02T04:50:04;58671.25;;;4.37;100.00
7836;BME280;3963;42.658;23.298;2023-03-02T04:52:33;58685.41;;;4.31;100.00
7836;BME280;3963;42.658;23.298;2023-03-02T04:54:59;58681.44;;;4.34;100.00
7836;BME280;3963;42.658;23.298;2023-03-02T04:57:26;58651.16;;;4.18;100.00
7836;BME280;3963;42.658;23.298;2023-03-02T04:59:53;58688.84;;;4.27;100.00
7836;BME280;3963;42.658;23.298;2023-03-02T05:02:20;58658.28;;;4.32;100.00
7836;BME280;3963;42.658;23.298;2023-03-02T05:04:47;58636.13;;;4.28;100.00
7836;BME280;3963;42.658;23.298;2023-03-02T05:07:14;58712.09;;;4.32;100.00
7836;BME280;3963;42.658;23.298;2023-03-02T05:09:42;58688.31;;;4.26;100.00
7836;BME280;3963;42.658;23.298;2023-03-02T05:12:09;58654.31;;;4.21;100.00
7836;BME280;3963;42.658;23.298;2023-03-02T05:14:35;58666.78;;;4.25;100.00
7836;BME280;3963;42.658;23.298;2023-03-02T05:17:02;58687.63;;;4.21;100.00
7836;BME280;3963;42.658;23.298;2023-03-02T05:19:29;58696.53;;;4.27;100.00
7836;BME280;3963;42.658;23.298;2023-03-02T05:21:56;58662.78;;;4.29;100.00
7836;BME280;3963;42.658;23.298;2023-03-02T05:24:23;58696.47;;;4.39;100.00
7836;BME280;3963;42.658;23.298;2023-03-02T05:26:51;58683.19;;;4.41;100.00
7836;BME280;3963;42.658;23.298;2023-03-02T05:29:18;58708.75;;;4.38;100.00
7836;BME280;3963;42.658;23.298;2023-03-02T05:31:45;58695.66;;;4.31;100.00
7836;BME280;3963;42.658;23.298;2023-03-02T05:34:13;58693.63;;;4.46;100.00
7836;BME280;3963;42.658;23.298;2023-03-02T05:36:42;58686.72;;;4.39;100.00
7836;BME280;3963;42.658;23.298;2023-03-02T05:39:10;58701.22;;;4.43;100.00
7836;BME280;3963;42.658;23.298;2023-03-02T05:41:38;58678.25;;;4.46;100.00
7836;BME280;3963;42.658;23.298;2023-03-02T05:44:06;58705.19;;;4.40;100.00
7836;BME280;3963;42.658;23.298;2023-03-02T05:46:36;58709.97;;;4.44;100.00
7836;BME280;3963;42.658;23.298;2023-03-02T05:49:03;58707.13;;;4.52;100.00
7836;BME280;3963;42.658;23.298;2023-03-02T05:51:30;58745.16;;;4.68;100.00
7836;BME280;3963;42.658;23.298;2023-03-02T05:53:57;58731.25;;;4.67;100.00
7836;BME280;3963;42.658;23.298;2023-03-02T05:56:23;58749.66;;;4.65;100.00
7836;BME280;3963;42.658;23.298;2023-03-02T05:58:50;58715.97;;;4.55;100.00
7836;BME280;3963;42.658;23.298;2023-03-02T06:01:18;58721.28;;;4.60;100.00
7836;BME280;3963;42.658;23.298;2023-03-02T06:03:45;58693.44;;;4.56;100.00
7836;BME280;3963;42.658;23.298;2023-03-02T06:06:12;58747.19;;;4.53;100.00
7836;BME280;3963;42.658;23.298;2023-03-02T06:08:39;58731.53;;;4.60;100.00
7836;BME280;3963;42.658;23.298;2023-03-02T06:11:06;58742.22;;;4.73;100.00
7836;BME280;3963;42.658;23.298;2023-03-02T06:13:33;58742.22;;;4.73;100.00
7836;BME280;3963;42.658;23.298;2023-03-02T06:16:00;58736.75;;;4.77;100.00
7836;BME280;3963;42.658;23.298;2023-03-02T06:18:28;58717.50;;;4.69;100.00
7836;BME280;3963;42.658;23.298;2023-03-02T06:20:55;58718.72;;;4.60;100.00
7836;BME280;3963;42.658;23.298;2023-03-02T06:23:22;58700.97;;;4.65;100.00
7836;BME280;3963;42.658;23.298;2023-03-02T06:25:49;58685.66;;;4.68;100.00
7836;BME280;3963;42.658;23.298;2023-03-02T06:28:17;58737.28;;;4.78;100.00
7836;BME280;3963;42.658;23.298;2023-03-02T06:30:45;58763.28;;;4.73;100.00
7836;BME280;3963;42.658;23.298;2023-03-02T06:33:13;58712.88;;;4.69;100.00
7836;BME280;3963;42.658;23.298;2023-03-02T06:35:41;58706.63;;;4.66;100.00
7836;BME280;3963;42.658;23.298;2023-03-02T06:38:08;58731.00;;;4.74;100.00
7836;BME280;3963;42.658;23.298;2023-03-02T06:40:35;58726.41;;;4.75;100.00
7836;BME280;3963;42.658;23.298;2023-03-02T06:43:02;58720.41;;;4.64;100.00
7836;BME280;3963;42.658;23.298;2023-03-02T06:45:29;58743.47;;;4.64;100.00
7836;BME280;3963;42.658;23.298;2023-03-02T06:47:58;58704.41;;;4.61;100.00
7836;BME280;3963;42.658;23.298;2023-03-02T06:50:25;58730.38;;;4.71;100.00
7836;BME280;3963;42.658;23.298;2023-03-02T06:52:54;58721.63;;;4.70;100.00
7836;BME280;3963;42.658;23.298;2023-03-02T06:55:21;58762.03;;;4.82;100.00
7836;BME280;3963;42.658;23.298;2023-03-02T06:57:48;58738.00;;;4.83;100.00
7836;BME280;3963;42.658;23.298;2023-03-02T07:00:16;58753.19;;;4.93;100.00
7836;BME280;3963;42.658;23.298;2023-03-02T07:02:49;58774.06;;;4.88;100.00
7836;BME280;3963;42.658;23.298;2023-03-02T07:05:16;58754.63;;;4.89;100.00
7836;BME280;3963;42.658;23.298;2023-03-02T07:07:43;58751.59;;;4.91;100.00
7836;BME280;3963;42.658;23.298;2023-03-02T07:10:11;58769.47;;;5.03;100.00
7836;BME280;3963;42.658;23.298;2023-03-02T07:12:39;58770.97;;;5.02;100.00
7836;BME280;3963;42.658;23.298;2023-03-02T07:15:07;58776.72;;;5.06;100.00
7836;BME280;3963;42.658;23.298;2023-03-02T07:17:35;58807.69;;;5.11;100.00
7836;BME280;3963;42.658;23.298;2023-03-02T07:20:02;58789.19;;;5.10;100.00
7836;BME280;3963;42.658;23.298;2023-03-02T07:22:30;58794.41;;;5.13;100.00
7836;BME280;3963;42.658;23.298;2023-03-02T07:24:57;58790.31;;;4.99;100.00
7836;BME280;3963;42.658;23.298;2023-03-02T07:27:25;58790.69;;;4.94;100.00
7836;BME280;3963;42.658;23.298;2023-03-02T07:29:52;58771.59;;;4.91;100.00
7836;BME280;3963;42.658;23.298;2023-03-02T07:32:18;58697.75;;;4.91;100.00
7836;BME280;3963;42.658;23.298;2023-03-02T07:34:45;58759.38;;;4.94;100.00
7836;BME280;3963;42.658;23.298;2023-03-02T07:37:12;58777.88;;;4.94;100.00
7836;BME280;3963;42.658;23.298;2023-03-02T07:39:39;58738.50;;;4.98;100.00
7836;BME280;3963;42.658;23.298;2023-03-02T07:42:05;58805.72;;;5.14;100.00
7836;BME280;3963;42.658;23.298;2023-03-02T07:44:34;58773.00;;;5.17;100.00
7836;BME280;3963;42.658;23.298;2023-03-02T07:47:01;58791.13;;;5.07;100.00
7836;BME280;3963;42.658;23.298;2023-03-02T07:49:28;58788.03;;;5.07;100.00
7836;BME280;3963;42.658;23.298;2023-03-02T07:51:55;58747.72;;;4.97;100.00
7836;BME280;3963;42.658;23.298;2023-03-02T07:54:21;58793.16;;;5.07;100.00
7836;BME280;3963;42.658;23.298;2023-03-02T07:56:50;58778.47;;;5.12;100.00
7836;BME280;3963;42.658;23.298;2023-03-02T07:59:17;58796.25;;;5.07;100.00
7836;BME280;3963;42.658;23.298;2023-03-02T08:01:45;58760.28;;;5.05;100.00
7836;BME280;3963;42.658;23.298;2023-03-02T08:04:12;58789.63;;;5.08;100.00
7836;BME280;3963;42.658;23.298;2023-03-02T08:06:39;58774.75;;;5.09;100.00
7836;BME280;3963;42.658;23.298;2023-03-02T08:09:06;58776.91;;;5.11;100.00
7836;BME280;3963;42.658;23.298;2023-03-02T08:11:32;58756.28;;;5.08;100.00
7836;BME280;3963;42.658;23.298;2023-03-02T08:13:59;58804.59;;;5.10;100.00
7836;BME280;3963;42.658;23.298;2023-03-02T08:16:26;58784.06;;;5.10;100.00
7836;BME280;3963;42.658;23.298;2023-03-02T08:18:55;58744.50;;;5.09;100.00
7836;BME280;3963;42.658;23.298;2023-03-02T08:21:24;58780.06;;;4.99;100.00
7836;BME280;3963;42.658;23.298;2023-03-02T08:23:51;58776.28;;;5.08;100.00
7836;BME280;3963;42.658;23.298;2023-03-02T08:26:19;58760.59;;;5.15;100.00
7836;BME280;3963;42.658;23.298;2023-03-02T08:28:46;58809.09;;;5.22;100.00
7836;BME280;3963;42.658;23.298;2023-03-02T08:31:13;58782.72;;;5.16;100.00
7836;BME280;3963;42.658;23.298;2023-03-02T08:33:40;58777.41;;;5.11;100.00
7836;BME280;3963;42.658;23.298;2023-03-02T08:36:13;58791.31;;;5.12;100.00
7836;BME280;3963;42.658;23.298;2023-03-02T08:38:40;58815.38;;;5.25;100.00
7836;BME280;3963;42.658;23.298;2023-03-02T08:41:10;58835.81;;;5.37;100.00
7836;BME280;3963;42.658;23.298;2023-03-02T08:43:37;58857.41;;;5.38;100.00
7836;BME280;3963;42.658;23.298;2023-03-02T08:46:04;58838.28;;;5.35;100.00
7836;BME280;3963;42.658;23.298;2023-03-02T08:48:31;58828.38;;;5.45;100.00
7836;BME280;3963;42.658;23.298;2023-03-02T08:51:00;58850.06;;;5.48;100.00
7836;BME280;3963;42.658;23.298;2023-03-02T08:53:33;58850.22;;;5.53;100.00
7836;BME280;3963;42.658;23.298;2023-03-02T08:56:01;58850.59;;;5.64;100.00
7836;BME280;3963;42.658;23.298;2023-03-02T08:58:28;58861.75;;;5.74;100.00
7836;BME280;3963;42.658;23.298;2023-03-02T09:00:55;58888.41;;;5.87;100.00
7836;BME280;3963;42.658;23.298;2023-03-02T09:03:21;58899.16;;;5.85;100.00
7836;BME280;3963;42.658;23.298;2023-03-02T09:05:48;58902.84;;;5.89;100.00
7836;BME280;3963;42.658;23.298;2023-03-02T09:08:15;58890.81;;;5.82;100.00
7836;BME280;3963;42.658;23.298;2023-03-02T09:10:43;58853.44;;;5.86;100.00
7836;BME280;3963;42.658;23.298;2023-03-02T09:13:11;58875.13;;;5.75;100.00
7836;BME280;3963;42.658;23.298;2023-03-02T09:15:38;58854.94;;;5.85;100.00
7836;BME280;3963;42.658;23.298;2023-03-02T09:18:05;58892.66;;;5.91;100.00
7836;BME280;3963;42.658;23.298;2023-03-02T09:20:33;58881.34;;;5.90;100.00
7836;BME280;3963;42.658;23.298;2023-03-02T09:22:59;58855.63;;;5.76;100.00
7836;BME280;3963;42.658;23.298;2023-03-02T09:25:26;58891.41;;;5.71;100.00
7836;BME280;3963;42.658;23.298;2023-03-02T09:27:54;58844.84;;;5.75;100.00
7836;BME280;3963;42.658;23.298;2023-03-02T09:30:21;58868.66;;;5.81;100.00
7836;BME280;3963;42.658;23.298;2023-03-02T09:32:48;58889.03;;;5.90;100.00
7836;BME280;3963;42.658;23.298;2023-03-02T09:35:15;58877.97;;;5.82;100.00
7836;BME280;3963;42.658;23.298;2023-03-02T09:37:41;58891.44;;;5.85;100.00
7836;BME280;3963;42.658;23.298;2023-03-02T09:40:16;58878.47;;;5.83;100.00
7836;BME280;3963;42.658;23.298;2023-03-02T09:46:03;58886.72;;;5.98;100.00
7836;BME280;3963;42.658;23.298;2023-03-02T09:48:39;58863.44;;;5.93;100.00
7836;BME280;3963;42.658;23.298;2023-03-02T09:51:27;58880.09;;;5.99;100.00
7836;BME280;3963;42.658;23.298;2023-03-02T09:54:01;58869.47;;;5.89;100.00
7836;BME280;3963;42.658;23.298;2023-03-02T09:56:29;58931.38;;;6.11;100.00
7836;BME280;3963;42.658;23.298;2023-03-02T09:59:01;58949.53;;;6.16;100.00
7836;BME280;3963;42.658;23.298;2023-03-02T10:01:37;58932.88;;;6.25;100.00
7836;BME280;3963;42.658;23.298;2023-03-02T10:04:28;58952.47;;;6.26;100.00
7836;BME280;3963;42.658;23.298;2023-03-02T10:06:57;58941.50;;;6.35;100.00
7836;BME280;3963;42.658;23.298;2023-03-02T10:09:27;58961.59;;;6.52;100.00
7836;BME280;3963;42.658;23.298;2023-03-02T10:12:26;58994.59;;;6.54;100.00
7836;BME280;3963;42.658;23.298;2023-03-02T10:15:04;58966.41;;;6.42;100.00
7836;BME280;3963;42.658;23.298;2023-03-02T10:17:50;58923.66;;;6.26;100.00
7836;BME280;3963;42.658;23.298;2023-03-02T10:20:23;58916.50;;;6.11;100.00
7836;BME280;3963;42.658;23.298;2023-03-02T10:22:56;58932.53;;;6.15;100.00
7836;BME280;3963;42.658;23.298;2023-03-02T10:25:31;58858.13;;;5.88;100.00
7836;BME280;3963;42.658;23.298;2023-03-02T10:28:11;58903.47;;;6.06;100.00
7836;BME280;3963;42.658;23.298;2023-03-02T10:30:40;58906.31;;;5.99;100.00
7836;BME280;3963;42.658;23.298;2023-03-02T10:33:12;58891.94;;;6.00;100.00
7836;BME280;3963;42.658;23.298;2023-03-02T10:35:44;58870.44;;;5.87;100.00
7836;BME280;3963;42.658;23.298;2023-03-02T10:38:14;58862.38;;;5.92;100.00
7836;BME280;3963;42.658;23.298;2023-03-02T10:40:42;58892.50;;;5.86;100.00
7836;BME280;3963;42.658;23.298;2023-03-02T10:43:16;58881.41;;;5.78;100.00
7836;BME280;3963;42.658;23.298;2023-03-02T10:45:43;58892.84;;;5.96;100.00
7836;BME280;3963;42.658;23.298;2023-03-02T10:48:13;58880.72;;;6.02;100.00
7836;BME280;3963;42.658;23.298;2023-03-02T10:50:41;58919.78;;;6.02;100.00
7836;BME280;3963;42.658;23.298;2023-03-02T10:53:15;58890.81;;;6.11;100.00
7836;BME280;3963;42.658;23.298;2023-03-02T10:55:44;58935.53;;;6.12;100.00
7836;BME280;3963;42.658;23.298;2023-03-02T10:58:21;58909.31;;;6.12;100.00
7836;BME280;3963;42.658;23.298;2023-03-02T11:00:57;58909.66;;;6.22;100.00
7836;BME280;3963;42.658;23.298;2023-03-02T11:03:27;58922.44;;;6.20;100.00
7836;BME280;3963;42.658;23.298;2023-03-02T11:05:55;58950.53;;;6.29;100.00
7836;BME280;3963;42.658;23.298;2023-03-02T11:08:24;58905.84;;;6.16;100.00
7836;BME280;3963;42.658;23.298;2023-03-02T11:10:53;58921.03;;;6.08;100.00
7836;BME280;3963;42.658;23.298;2023-03-02T11:13:25;58869.63;;;6.08;100.00
7836;BME280;3963;42.658;23.298;2023-03-02T11:15:55;58909.13;;;6.07;100.00
7836;BME280;3963;42.658;23.298;2023-03-02T11:18:27;58875.38;;;6.11;100.00
7836;BME280;3963;42.658;23.298;2023-03-02T11:20:58;58923.75;;;6.28;100.00
7836;BME280;3963;42.658;23.298;2023-03-02T11:23:36;58918.69;;;6.31;100.00
7836;BME280;3963;42.658;23.298;2023-03-02T11:26:09;58928.44;;;6.16;100.00
7836;BME280;3963;42.658;23.298;2023-03-02T11:28:46;58946.00;;;6.32;100.00
7836;BME280;3963;42.658;23.298;2023-03-02T11:31:21;58922.97;;;6.35;100.00
7836;BME280;3963;42.658;23.298;2023-03-02T11:34:09;58938.38;;;6.35;100.00
7836;BME280;3963;42.658;23.298;2023-03-02T11:36:44;58953.97;;;6.40;100.00
7836;BME280;3963;42.658;23.298;2023-03-02T11:39:18;58957.00;;;6.38;100.00
7836;BME280;3963;42.658;23.298;2023-03-02T11:41:49;58943.88;;;6.45;100.00
7836;BME280;3963;42.658;23.298;2023-03-02T11:44:18;58967.19;;;6.50;100.00
7836;BME280;3963;42.658;23.298;2023-03-02T11:46:48;58959.84;;;6.60;100.00
7836;BME280;3963;42.658;23.298;2023-03-02T11:49:21;58970.38;;;6.67;100.00
7836;BME280;3963;42.658;23.298;2023-03-02T11:51:54;58968.34;;;6.68;100.00
7836;BME280;3963;42.658;23.298;2023-03-02T11:54:30;58946.53;;;6.62;100.00
7836;BME280;3963;42.658;23.298;2023-03-02T11:56:58;58996.53;;;6.51;100.00
7836;BME280;3963;42.658;23.298;2023-03-02T11:59:26;59014.47;;;6.63;100.00
7836;BME280;3963;42.658;23.298;2023-03-02T12:01:54;58990.16;;;6.59;100.00
7836;BME280;3963;42.658;23.298;2023-03-02T12:04:30;58966.19;;;6.51;100.00
7836;BME280;3963;42.658;23.298;2023-03-02T12:06:59;58988.00;;;6.57;100.00
7836;BME280;3963;42.658;23.298;2023-03-02T12:09:36;58926.94;;;6.46;100.00
7836;BME280;3963;42.658;23.298;2023-03-02T12:12:38;59021.03;;;6.74;100.00
7836;BME280;3963;42.658;23.298;2023-03-02T12:15:39;59011.06;;;6.84;100.00
7836;BME280;3963;42.658;23.298;2023-03-02T12:18:30;59000.78;;;6.84;100.00
7836;BME280;3963;42.658;23.298;2023-03-02T12:21:01;59003.72;;;6.80;100.00
7836;BME280;3963;42.658;23.298;2023-03-02T12:23:29;59003.97;;;6.87;100.00
7836;BME280;3963;42.658;23.298;2023-03-02T12:26:06;59039.81;;;6.97;100.00
7836;BME280;3963;42.658;23.298;2023-03-02T12:28:35;59016.94;;;7.04;100.00
7836;BME280;3963;42.658;23.298;2023-03-02T12:31:05;59022.88;;;7.12;100.00
7836;BME280;3963;42.658;23.298;2023-03-02T12:33:40;59049.47;;;7.23;100.00
7836;BME280;3963;42.658;23.298;2023-03-02T12:36:14;59065.03;;;7.11;100.00
7836;BME280;3963;42.658;23.298;2023-03-02T12:38:45;59039.19;;;7.08;100.00
7836;BME280;3963;42.658;23.298;2023-03-02T12:41:32;59018.44;;;7.03;100.00
7836;BME280;3963;42.658;23.298;2023-03-02T12:44:15;59055.78;;;7.12;100.00
7836;BME280;3963;42.658;23.298;2023-03-02T12:46:45;59031.81;;;7.18;100.00
7836;BME280;3963;42.658;23.298;2023-03-02T12:49:27;59066.19;;;7.14;100.00
7836;BME280;3963;42.658;23.298;2023-03-02T12:52:01;59038.06;;;7.19;100.00
7836;BME280;3963;42.658;23.298;2023-03-02T12:54:29;59036.38;;;7.01;100.00
7836;BME280;3963;42.658;23.298;2023-03-02T12:57:04;58981.44;;;6.76;100.00
7836;BME280;3963;42.658;23.298;2023-03-02T12:59:33;58987.59;;;6.74;100.00
7836;BME280;3963;42.658;23.298;2023-03-02T13:02:13;59019.78;;;6.83;100.00
7836;BME280;3963;42.658;23.298;2023-03-02T13:04:40;58994.66;;;6.86;100.00
7836;BME280;3963;42.658;23.298;2023-03-02T13:07:16;59025.88;;;6.81;100.00
7836;BME280;3963;42.658;23.298;2023-03-02T13:09:48;59000.06;;;6.79;100.00
7836;BME280;3963;42.658;23.298;2023-03-02T13:12:15;58982.16;;;6.81;100.00
7836;BME280;3963;42.658;23.298;2023-03-02T13:14:43;59031.66;;;6.99;100.00
7836;BME280;3963;42.658;23.298;2023-03-02T13:17:21;59000.16;;;6.96;100.00
7836;BME280;3963;42.658;23.298;2023-03-02T13:19:49;58998.31;;;6.72;100.00
7836;BME280;3963;42.658;23.298;2023-03-02T13:22:19;59015.44;;;6.76;100.00
7836;BME280;3963;42.658;23.298;2023-03-02T13:24:50;58962.41;;;6.60;100.00
7836;BME280;3963;42.658;23.298;2023-03-02T13:27:18;58979.25;;;6.56;100.00